sensor_id;sensor_type;location;lat;lon;timestamp;pressure;altitude;pressure_sealevel;temperature;humidity
77192;BME280;66172;48.526;8.078;2023-08-21T00:01:11;99997.81;;;23.09;87.35
77192;BME280;66172;48.526;8.078;2023-08-21T00:03:37;99992.56;;;23.22;86.13
77192;BME280;66172;48.526;8.078;2023-08-21T00:06:02;99995.19;;;23.36;85.15
77192;BME280;66172;48.526;8.078;2023-08-21T00:08:28;99990.47;;;23.29;85.65
77192;BME280;66172;48.526;8.078;2023-08-21T00:10:55;99991.22;;;23.37;84.70
77192;BME280;66172;48.526;8.078;2023-08-21T00:13:21;99991.13;;;23.48;84.08
77192;BME280;66172;48.526;8.078;2023-08-21T00:15:47;99989.31;;;23.27;85.23
77192;BME280;66172;48.526;8.078;2023-08-21T00:18:13;99994.91;;;23.23;85.82
77192;BME280;66172;48.526;8.078;2023-08-21T00:20:40;99982.63;;;23.24;85.37
77192;BME280;66172;48.526;8.078;2023-08-21T00:23:07;99990.47;;;23.29;84.35
77192;BME280;66172;48.526;8.078;2023-08-21T00:25:34;99989.09;;;23.11;85.68
77192;BME280;66172;48.526;8.078;2023-08-21T00:28:00;99990.22;;;23.17;85.68
77192;BME280;66172;48.526;8.078;2023-08-21T00:30:26;99994.13;;;23.23;85.24
77192;BME280;66172;48.526;8.078;2023-08-21T00:32:52;99984.13;;;23.32;84.55
77192;BME280;66172;48.526;8.078;2023-08-21T00:35:18;99988.84;;;23.35;84.15
77192;BME280;66172;48.526;8.078;2023-08-21T00:37:44;99980.13;;;23.33;84.22
77192;BME280;66172;48.526;8.078;2023-08-21T00:40:10;99984.63;;;23.20;85.20
77192;BME280;66172;48.526;8.078;2023-08-21T00:42:36;99982.81;;;23.03;86.71
77192;BME280;66172;48.526;8.078;2023-08-21T00:45:02;99991.38;;;22.64;89.25
77192;BME280;66172;48.526;8.078;2023-08-21T00:47:29;99989.41;;;22.65;89.72
77192;BME280;66172;48.526;8.078;2023-08-21T00:49:55;99982.66;;;22.66;89.90
77192;BME280;66172;48.526;8.078;2023-08-21T00:52:21;99996.34;;;22.90;87.68
77192;BME280;66172;48.526;8.078;2023-08-21T00:54:47;99985.06;;;22.60;89.65
77192;BME280;66172;48.526;8.078;2023-08-21T00:57:14;99988.59;;;22.64;89.33
77192;BME280;66172;48.526;8.078;2023-08-21T00:59:40;99985.03;;;22.64;89.34
77192;BME280;66172;48.526;8.078;2023-08-21T01:02:06;99986.97;;;22.74;88.60
77192;BME280;66172;48.526;8.078;2023-08-21T01:04:32;99989.44;;;22.58;89.24
77192;BME280;66172;48.526;8.078;2023-08-21T01:06:58;99988.72;;;22.47;90.37
77192;BME280;66172;48.526;8.078;2023-08-21T01:09:29;99990.75;;;22.35;91.30
77192;BME280;66172;48.526;8.078;2023-08-21T01:15:06;99988.47;;;22.23;92.32
77192;BME280;66172;48.526;8.078;2023-08-21T01:17:34;99982.19;;;22.12;92.95
77192;BME280;66172;48.526;8.078;2023-08-21T01:20:00;99991.69;;;22.08;93.28
77192;BME280;66172;48.526;8.078;2023-08-21T01:22:35;99992.84;;;22.14;92.36
77192;BME280;66172;48.526;8.078;2023-08-21T01:25:03;99997.22;;;22.11;92.61
77192;BME280;66172;48.526;8.078;2023-08-21T01:27:29;99994.38;;;22.25;91.17
77192;BME280;66172;48.526;8.078;2023-08-21T01:29:54;99997.09;;;22.36;90.54
77192;BME280;66172;48.526;8.078;2023-08-21T01:32:29;99983.69;;;22.24;91.18
77192;BME280;66172;48.526;8.078;2023-08-21T01:34:58;99989.31;;;22.06;91.81
77192;BME280;66172;48.526;8.078;2023-08-21T01:37:26;99990.59;;;21.80;94.00
77192;BME280;66172;48.526;8.078;2023-08-21T01:39:52;99991.03;;;21.61;95.99
77192;BME280;66172;48.526;8.078;2023-08-21T01:42:18;99992.97;;;21.64;96.30
77192;BME280;66172;48.526;8.078;2023-08-21T01:44:44;99991.78;;;21.72;95.58
77192;BME280;66172;48.526;8.078;2023-08-21T01:47:12;99992.16;;;21.78;94.93
77192;BME280;66172;48.526;8.078;2023-08-21T01:49:38;99991.38;;;21.84;94.41
77192;BME280;66172;48.526;8.078;2023-08-21T01:52:04;99998.09;;;21.76;94.64
77192;BME280;66172;48.526;8.078;2023-08-21T01:54:30;99984.25;;;21.80;94.27
77192;BME280;66172;48.526;8.078;2023-08-21T01:56:55;99992.56;;;21.90;93.18
77192;BME280;66172;48.526;8.078;2023-08-21T01:59:23;100004.75;;;22.07;91.61
77192;BME280;66172;48.526;8.078;2023-08-21T02:01:49;100007.94;;;22.09;91.32
77192;BME280;66172;48.526;8.078;2023-08-21T02:04:15;100005.13;;;22.16;90.71
77192;BME280;66172;48.526;8.078;2023-08-21T02:06:41;100007.94;;;22.09;90.93
77192;BME280;66172;48.526;8.078;2023-08-21T02:09:07;100011.50;;;21.96;91.50
77192;BME280;66172;48.526;8.078;2023-08-21T02:11:33;100009.13;;;22.05;91.23
77192;BME280;66172;48.526;8.078;2023-08-21T02:13:58;100013.81;;;22.18;89.67
77192;BME280;66172;48.526;8.078;2023-08-21T02:16:24;100012.97;;;22.25;89.08
77192;BME280;66172;48.526;8.078;2023-08-21T02:18:50;100012.59;;;22.23;89.51
77192;BME280;66172;48.526;8.078;2023-08-21T02:21:16;100015.38;;;22.26;89.37
77192;BME280;66172;48.526;8.078;2023-08-21T02:23:42;100009.41;;;22.28;88.71
77192;BME280;66172;48.526;8.078;2023-08-21T02:26:08;100014.13;;;22.31;88.51
77192;BME280;66172;48.526;8.078;2023-08-21T02:28:34;100020.88;;;22.33;87.96
77192;BME280;66172;48.526;8.078;2023-08-21T02:31:00;100024.03;;;22.35;87.99
77192;BME280;66172;48.526;8.078;2023-08-21T02:33:26;100019.03;;;22.02;90.68
77192;BME280;66172;48.526;8.078;2023-08-21T02:35:51;100021.41;;;22.00;91.00
77192;BME280;66172;48.526;8.078;2023-08-21T02:38:17;100020.63;;;21.96;91.13
77192;BME280;66172;48.526;8.078;2023-08-21T02:40:43;100028.09;;;22.06;90.18
77192;BME280;66172;48.526;8.078;2023-08-21T02:43:09;100023.28;;;22.21;88.76
77192;BME280;66172;48.526;8.078;2023-08-21T02:45:35;100019.78;;;22.06;90.01
77192;BME280;66172;48.526;8.078;2023-08-21T02:48:01;100020.28;;;21.62;92.36
77192;BME280;66172;48.526;8.078;2023-08-21T02:50:27;100017.56;;;21.45;94.20
77192;BME280;66172;48.526;8.078;2023-08-21T02:52:53;100022.31;;;21.33;95.50
77192;BME280;66172;48.526;8.078;2023-08-21T02:55:19;100017.56;;;21.16;97.72
77192;BME280;66172;48.526;8.078;2023-08-21T02:57:46;100018.34;;;21.06;98.59
77192;BME280;66172;48.526;8.078;2023-08-21T03:00:12;100016.34;;;21.00;99.31
77192;BME280;66172;48.526;8.078;2023-08-21T03:02:38;100011.22;;;20.94;99.54
77192;BME280;66172;48.526;8.078;2023-08-21T03:05:08;100017.91;;;20.97;98.96
77192;BME280;66172;48.526;8.078;2023-08-21T03:07:35;100019.13;;;20.96;98.90
77192;BME280;66172;48.526;8.078;2023-08-21T03:10:01;100013.97;;;20.98;98.46
77192;BME280;66172;48.526;8.078;2023-08-21T03:12:28;100020.28;;;20.95;98.57
77192;BME280;66172;48.526;8.078;2023-08-21T03:14:54;100016.75;;;20.94;98.76
77192;BME280;66172;48.526;8.078;2023-08-21T03:17:19;100009.22;;;20.91;98.58
77192;BME280;66172;48.526;8.078;2023-08-21T03:19:45;100019.13;;;20.85;99.26
77192;BME280;66172;48.526;8.078;2023-08-21T03:22:11;100014.38;;;20.86;98.80
77192;BME280;66172;48.526;8.078;2023-08-21T03:24:37;100013.16;;;20.80;99.54
77192;BME280;66172;48.526;8.078;2023-08-21T03:27:03;100010.03;;;20.81;99.38
77192;BME280;66172;48.526;8.078;2023-08-21T03:29:29;100011.97;;;20.77;99.72
77192;BME280;66172;48.526;8.078;2023-08-21T03:31:56;100013.97;;;20.80;99.52
77192;BME280;66172;48.526;8.078;2023-08-21T03:34:22;100010.03;;;20.81;98.77
77192;BME280;66172;48.526;8.078;2023-08-21T03:36:48;100023.44;;;20.83;98.87
77192;BME280;66172;48.526;8.078;2023-08-21T03:39:14;100021.47;;;20.87;98.45
77192;BME280;66172;48.526;8.078;2023-08-21T03:41:40;100012.00;;;20.95;97.66
77192;BME280;66172;48.526;8.078;2023-08-21T03:44:06;100016.75;;;21.05;96.46
77192;BME280;66172;48.526;8.078;2023-08-21T03:46:32;100009.66;;;21.11;95.89
77192;BME280;66172;48.526;8.078;2023-08-21T03:48:58;100017.19;;;21.18;95.56
77192;BME280;66172;48.526;8.078;2023-08-21T03:51:23;100022.72;;;21.21;94.71
77192;BME280;66172;48.526;8.078;2023-08-21T03:53:50;100019.91;;;21.04;96.40
77192;BME280;66172;48.526;8.078;2023-08-21T03:56:16;100017.91;;;20.97;97.08
77192;BME280;66172;48.526;8.078;2023-08-21T03:58:41;100021.88;;;20.89;97.78
77192;BME280;66172;48.526;8.078;2023-08-21T04:01:07;100027.00;;;20.87;97.62
77192;BME280;66172;48.526;8.078;2023-08-21T04:03:33;100027.00;;;20.94;96.61
77192;BME280;66172;48.526;8.078;2023-08-21T04:05:59;100029.38;;;20.92;96.87
77192;BME280;66172;48.526;8.078;2023-08-21T04:08:25;100026.63;;;20.92;96.74
77192;BME280;66172;48.526;8.078;2023-08-21T04:10:51;100036.50;;;20.93;96.35
77192;BME280;66172;48.526;8.078;2023-08-21T04:13:19;100030.19;;;21.00;95.62
77192;BME280;66172;48.526;8.078;2023-08-21T04:15:46;100034.56;;;21.22;94.36
77192;BME280;66172;48.526;8.078;2023-08-21T04:18:12;100033.78;;;21.28;93.29
77192;BME280;66172;48.526;8.078;2023-08-21T04:20:38;100044.44;;;21.37;92.54
77192;BME280;66172;48.526;8.078;2023-08-21T04:23:04;100030.22;;;21.24;93.17
77192;BME280;66172;48.526;8.078;2023-08-21T04:25:29;100039.69;;;21.41;91.93
77192;BME280;66172;48.526;8.078;2023-08-21T04:27:55;100041.28;;;21.53;90.28
77192;BME280;66172;48.526;8.078;2023-08-21T04:30:23;100040.50;;;21.41;91.02
77192;BME280;66172;48.526;8.078;2023-08-21T04:32:49;100039.69;;;21.23;92.34
77192;BME280;66172;48.526;8.078;2023-08-21T04:35:15;100044.44;;;21.23;92.49
77192;BME280;66172;48.526;8.078;2023-08-21T04:37:46;100037.31;;;21.47;91.17
77192;BME280;66172;48.526;8.078;2023-08-21T04:40:13;100037.28;;;21.61;89.89
77192;BME280;66172;48.526;8.078;2023-08-21T04:42:39;100039.28;;;21.67;89.49
77192;BME280;66172;48.526;8.078;2023-08-21T04:45:05;100042.84;;;21.54;89.91
77192;BME280;66172;48.526;8.078;2023-08-21T04:47:31;100042.06;;;21.46;90.26
77192;BME280;66172;48.526;8.078;2023-08-21T04:49:57;100040.88;;;21.47;90.36
77192;BME280;66172;48.526;8.078;2023-08-21T04:52:24;100048.75;;;21.66;89.38
77192;BME280;66172;48.526;8.078;2023-08-21T04:54:51;100044.41;;;21.62;89.70
77192;BME280;66172;48.526;8.078;2023-08-21T04:57:17;100049.56;;;21.60;89.40
77192;BME280;66172;48.526;8.078;2023-08-21T04:59:43;100054.28;;;21.66;88.47
77192;BME280;66172;48.526;8.078;2023-08-21T05:02:10;100057.88;;;21.56;88.93
77192;BME280;66172;48.526;8.078;2023-08-21T05:04:36;100061.03;;;21.55;89.25
77192;BME280;66172;48.526;8.078;2023-08-21T05:07:03;100057.84;;;21.74;88.39
77192;BME280;66172;48.526;8.078;2023-08-21T05:09:29;100066.91;;;21.85;87.11
77192;BME280;66172;48.526;8.078;2023-08-21T05:11:55;100065.72;;;21.82;87.65
77192;BME280;66172;48.526;8.078;2023-08-21T05:14:22;100062.56;;;21.80;87.67
77192;BME280;66172;48.526;8.078;2023-08-21T05:16:50;100071.69;;;21.95;86.47
77192;BME280;66172;48.526;8.078;2023-08-21T05:19:17;100060.22;;;21.58;88.78
77192;BME280;66172;48.526;8.078;2023-08-21T05:21:43;100071.72;;;21.42;89.70
77192;BME280;66172;48.526;8.078;2023-08-21T05:24:09;100072.91;;;21.45;90.13
77192;BME280;66172;48.526;8.078;2023-08-21T05:26:36;100067.72;;;21.64;88.96
77192;BME280;66172;48.526;8.078;2023-08-21T05:29:02;100067.31;;;21.83;87.60
77192;BME280;66172;48.526;8.078;2023-08-21T05:31:28;100061.78;;;21.87;87.17
77192;BME280;66172;48.526;8.078;2023-08-21T05:33:54;100067.28;;;22.12;85.46
77192;BME280;66172;48.526;8.078;2023-08-21T05:36:20;100061.31;;;22.17;85.05
77192;BME280;66172;48.526;8.078;2023-08-21T05:38:46;100071.13;;;22.35;83.77
77192;BME280;66172;48.526;8.078;2023-08-21T05:41:14;100078.22;;;22.44;83.54
77192;BME280;66172;48.526;8.078;2023-08-21T05:43:40;100069.88;;;22.51;83.08
77192;BME280;66172;48.526;8.078;2023-08-21T05:46:08;100064.44;;;22.29;84.29
77192;BME280;66172;48.526;8.078;2023-08-21T05:48:34;100074.88;;;22.80;81.61
77192;BME280;66172;48.526;8.078;2023-08-21T05:51:00;100067.16;;;23.64;76.73
77192;BME280;66172;48.526;8.078;2023-08-21T05:53:26;100070.38;;;24.64;71.98
77192;BME280;66172;48.526;8.078;2023-08-21T05:55:52;100070.47;;;24.88;70.86
77192;BME280;66172;48.526;8.078;2023-08-21T05:58:18;100068.78;;;25.20;69.48
77192;BME280;66172;48.526;8.078;2023-08-21T06:00:44;100068.41;;;25.18;70.21
77192;BME280;66172;48.526;8.078;2023-08-21T06:03:10;100071.88;;;26.15;66.58
77192;BME280;66172;48.526;8.078;2023-08-21T06:05:36;100076.25;;;26.56;65.88
77192;BME280;66172;48.526;8.078;2023-08-21T06:08:02;100085.88;;;26.71;64.13
77192;BME280;66172;48.526;8.078;2023-08-21T06:10:28;100078.56;;;27.77;60.51
77192;BME280;66172;48.526;8.078;2023-08-21T06:12:54;100083.59;;;27.99;59.98
77192;BME280;66172;48.526;8.078;2023-08-21T06:15:19;100077.97;;;27.70;59.92
77192;BME280;66172;48.526;8.078;2023-08-21T06:17:45;100088.88;;;29.17;55.88
77192;BME280;66172;48.526;8.078;2023-08-21T06:20:11;100091.31;;;30.56;51.61
77192;BME280;66172;48.526;8.078;2023-08-21T06:22:39;100097.75;;;32.40;47.46
77192;BME280;66172;48.526;8.078;2023-08-21T06:25:05;100102.97;;;33.26;45.73
77192;BME280;66172;48.526;8.078;2023-08-21T06:27:31;100090.78;;;33.76;43.33
77192;BME280;66172;48.526;8.078;2023-08-21T06:29:57;100101.28;;;32.77;44.44
77192;BME280;66172;48.526;8.078;2023-08-21T06:32:23;100104.66;;;34.27;41.66
77192;BME280;66172;48.526;8.078;2023-08-21T06:34:49;100098.84;;;33.03;44.04
77192;BME280;66172;48.526;8.078;2023-08-21T06:37:15;100104.84;;;33.29;42.76
77192;BME280;66172;48.526;8.078;2023-08-21T06:39:41;100116.63;;;35.39;39.70
77192;BME280;66172;48.526;8.078;2023-08-21T06:42:06;100106.25;;;37.15;36.53
77192;BME280;66172;48.526;8.078;2023-08-21T06:44:32;100111.28;;;38.49;33.79
77192;BME280;66172;48.526;8.078;2023-08-21T06:46:58;100107.97;;;38.84;33.83
77192;BME280;66172;48.526;8.078;2023-08-21T06:49:24;100129.66;;;39.31;32.96
77192;BME280;66172;48.526;8.078;2023-08-21T06:51:50;100133.09;;;39.99;32.53
77192;BME280;66172;48.526;8.078;2023-08-21T06:54:16;100120.59;;;40.18;32.20
77192;BME280;66172;48.526;8.078;2023-08-21T06:56:44;100128.19;;;40.46;31.68
77192;BME280;66172;48.526;8.078;2023-08-21T06:59:09;100125.09;;;40.79;31.34
77192;BME280;66172;48.526;8.078;2023-08-21T07:01:35;100126.16;;;40.81;31.56
77192;BME280;66172;48.526;8.078;2023-08-21T07:04:01;100125.72;;;40.96;30.68
77192;BME280;66172;48.526;8.078;2023-08-21T07:06:28;100115.75;;;40.84;31.19
77192;BME280;66172;48.526;8.078;2023-08-21T07:08:54;100123.78;;;41.15;30.24
77192;BME280;66172;48.526;8.078;2023-08-21T07:11:20;100131.72;;;41.76;29.62
77192;BME280;66172;48.526;8.078;2023-08-21T07:13:46;100122.66;;;41.97;29.43
77192;BME280;66172;48.526;8.078;2023-08-21T07:16:12;100128.06;;;42.00;29.51
77192;BME280;66172;48.526;8.078;2023-08-21T07:18:38;100126.81;;;42.52;28.78
77192;BME280;66172;48.526;8.078;2023-08-21T07:21:04;100124.94;;;42.54;29.20
77192;BME280;66172;48.526;8.078;2023-08-21T07:26:08;100130.94;;;43.33;28.14
77192;BME280;66172;48.526;8.078;2023-08-21T07:28:34;100126.66;;;42.95;27.98
77192;BME280;66172;48.526;8.078;2023-08-21T07:31:01;100129.06;;;42.91;28.25
77192;BME280;66172;48.526;8.078;2023-08-21T07:33:27;100127.44;;;43.40;27.70
77192;BME280;66172;48.526;8.078;2023-08-21T07:36:03;100132.16;;;43.24;27.96
77192;BME280;66172;48.526;8.078;2023-08-21T07:38:29;100129.91;;;43.04;28.36
77192;BME280;66172;48.526;8.078;2023-08-21T07:41:03;100131.44;;;42.55;29.01
77192;BME280;66172;48.526;8.078;2023-08-21T07:43:29;100134.34;;;42.36;29.93
77192;BME280;66172;48.526;8.078;2023-08-21T07:45:55;100136.53;;;42.06;29.97
77192;BME280;66172;48.526;8.078;2023-08-21T07:48:21;100130.16;;;41.27;31.23
77192;BME280;66172;48.526;8.078;2023-08-21T07:50:51;100129.63;;;41.53;30.93
77192;BME280;66172;48.526;8.078;2023-08-21T07:53:17;100134.72;;;41.35;31.32
77192;BME280;66172;48.526;8.078;2023-08-21T07:55:44;100131.44;;;40.66;31.90
77192;BME280;66172;48.526;8.078;2023-08-21T07:58:11;100140.72;;;40.72;32.89
77192;BME280;66172;48.526;8.078;2023-08-21T08:00:38;100139.78;;;40.59;32.75
77192;BME280;66172;48.526;8.078;2023-08-21T08:03:05;100139.66;;;40.34;33.17
77192;BME280;66172;48.526;8.078;2023-08-21T08:05:31;100132.56;;;40.47;32.05
77192;BME280;66172;48.526;8.078;2023-08-21T08:07:58;100125.03;;;40.14;32.78
77192;BME280;66172;48.526;8.078;2023-08-21T08:10:25;100136.28;;;39.78;33.83
77192;BME280;66172;48.526;8.078;2023-08-21T08:12:50;100128.50;;;40.36;33.09
77192;BME280;66172;48.526;8.078;2023-08-21T08:15:17;100130.13;;;40.26;33.70
77192;BME280;66172;48.526;8.078;2023-08-21T08:17:43;100125.84;;;39.98;33.55
77192;BME280;66172;48.526;8.078;2023-08-21T08:20:12;100134.22;;;39.68;33.87
77192;BME280;66172;48.526;8.078;2023-08-21T08:22:38;100136.03;;;39.82;33.88
77192;BME280;66172;48.526;8.078;2023-08-21T08:25:05;100131.66;;;39.75;33.73
77192;BME280;66172;48.526;8.078;2023-08-21T08:27:32;100138.94;;;39.37;34.17
77192;BME280;66172;48.526;8.078;2023-08-21T08:29:58;100135.28;;;39.76;33.93
77192;BME280;66172;48.526;8.078;2023-08-21T08:32:26;100138.09;;;39.81;33.81
77192;BME280;66172;48.526;8.078;2023-08-21T08:34:53;100133.47;;;39.62;33.75
77192;BME280;66172;48.526;8.078;2023-08-21T08:37:19;100133.13;;;39.87;34.05
77192;BME280;66172;48.526;8.078;2023-08-21T08:39:48;100139.88;;;39.84;33.44
77192;BME280;66172;48.526;8.078;2023-08-21T08:42:15;100137.06;;;39.73;33.42
77192;BME280;66172;48.526;8.078;2023-08-21T08:44:42;100133.13;;;40.39;33.01
77192;BME280;66172;48.526;8.078;2023-08-21T08:47:10;100129.16;;;40.59;32.42
77192;BME280;66172;48.526;8.078;2023-08-21T08:49:39;100123.09;;;40.74;32.41
77192;BME280;66172;48.526;8.078;2023-08-21T08:52:06;100133.41;;;41.12;31.55
77192;BME280;66172;48.526;8.078;2023-08-21T08:54:32;100132.50;;;40.99;32.66
77192;BME280;66172;48.526;8.078;2023-08-21T08:56:59;100134.69;;;41.17;32.32
77192;BME280;66172;48.526;8.078;2023-08-21T08:59:24;100130.09;;;41.32;31.33
77192;BME280;66172;48.526;8.078;2023-08-21T09:01:51;100130.47;;;41.72;31.04
77192;BME280;66172;48.526;8.078;2023-08-21T09:04:17;100131.09;;;42.08;29.75
77192;BME280;66172;48.526;8.078;2023-08-21T09:06:43;100126.81;;;42.14;29.87
77192;BME280;66172;48.526;8.078;2023-08-21T09:09:09;100134.22;;;41.85;30.39
77192;BME280;66172;48.526;8.078;2023-08-21T09:11:46;100133.84;;;42.13;29.94
77192;BME280;66172;48.526;8.078;2023-08-21T09:14:13;100128.84;;;41.52;31.05
77192;BME280;66172;48.526;8.078;2023-08-21T09:16:59;100125.91;;;41.39;30.99
77192;BME280;66172;48.526;8.078;2023-08-21T09:19:26;100126.22;;;41.30;31.04
77192;BME280;66172;48.526;8.078;2023-08-21T09:21:52;100119.03;;;41.72;30.25
77192;BME280;66172;48.526;8.078;2023-08-21T09:24:18;100113.38;;;41.66;30.14
77192;BME280;66172;48.526;8.078;2023-08-21T09:26:44;100122.72;;;42.10;29.14
77192;BME280;66172;48.526;8.078;2023-08-21T09:29:10;100121.66;;;41.94;29.46
77192;BME280;66172;48.526;8.078;2023-08-21T09:31:36;100118.19;;;42.01;29.47
77192;BME280;66172;48.526;8.078;2023-08-21T09:34:03;100117.16;;;41.80;30.10
77192;BME280;66172;48.526;8.078;2023-08-21T09:36:33;100121.25;;;42.03;29.56
77192;BME280;66172;48.526;8.078;2023-08-21T09:39:00;100116.81;;;42.58;29.26
77192;BME280;66172;48.526;8.078;2023-08-21T09:41:26;100115.00;;;42.93;28.95
77192;BME280;66172;48.526;8.078;2023-08-21T09:43:52;100119.03;;;43.29;27.73
77192;BME280;66172;48.526;8.078;2023-08-21T09:46:25;100109.59;;;43.87;27.53
77192;BME280;66172;48.526;8.078;2023-08-21T09:48:52;100113.66;;;43.91;27.42
77192;BME280;66172;48.526;8.078;2023-08-21T09:51:18;100103.22;;;44.28;26.44
77192;BME280;66172;48.526;8.078;2023-08-21T09:53:45;100108.94;;;43.81;27.73
77192;BME280;66172;48.526;8.078;2023-08-21T09:56:11;100105.00;;;44.17;26.36
77192;BME280;66172;48.526;8.078;2023-08-21T09:58:37;100095.16;;;44.13;26.90
77192;BME280;66172;48.526;8.078;2023-08-21T10:01:05;100099.75;;;44.42;25.63
77192;BME280;66172;48.526;8.078;2023-08-21T10:03:40;100093.66;;;44.87;25.83
77192;BME280;66172;48.526;8.078;2023-08-21T10:06:08;100092.63;;;44.77;25.55
77192;BME280;66172;48.526;8.078;2023-08-21T10:08:41;100097.16;;;44.18;26.31
77192;BME280;66172;48.526;8.078;2023-08-21T10:11:09;100082.50;;;44.21;25.33
77192;BME280;66172;48.526;8.078;2023-08-21T10:13:37;100081.81;;;45.11;24.00
77192;BME280;66172;48.526;8.078;2023-08-21T10:16:04;100082.09;;;45.21;24.37
77192;BME280;66172;48.526;8.078;2023-08-21T10:18:33;100083.88;;;44.83;24.54
77192;BME280;66172;48.526;8.078;2023-08-21T10:21:13;100077.56;;;45.05;25.27
77192;BME280;66172;48.526;8.078;2023-08-21T10:23:40;100064.34;;;45.30;24.24
77192;BME280;66172;48.526;8.078;2023-08-21T10:26:09;100070.00;;;45.79;23.99
77192;BME280;66172;48.526;8.078;2023-08-21T10:28:49;100060.53;;;45.63;24.48
77192;BME280;66172;48.526;8.078;2023-08-21T10:31:38;100057.50;;;45.12;25.37
77192;BME280;66172;48.526;8.078;2023-08-21T10:34:07;100060.78;;;45.73;25.29
77192;BME280;66172;48.526;8.078;2023-08-21T10:39:19;100059.88;;;45.21;24.84
77192;BME280;66172;48.526;8.078;2023-08-21T10:44:37;100050.69;;;45.23;25.77
77192;BME280;66172;48.526;8.078;2023-08-21T10:47:17;100065.53;;;45.06;25.48
77192;BME280;66172;48.526;8.078;2023-08-21T10:49:44;100054.09;;;44.72;25.96
77192;BME280;66172;48.526;8.078;2023-08-21T10:52:10;100053.25;;;44.10;26.57
77192;BME280;66172;48.526;8.078;2023-08-21T10:54:47;100051.66;;;45.26;25.07
77192;BME280;66172;48.526;8.078;2023-08-21T10:57:13;100049.41;;;45.67;24.97
77192;BME280;66172;48.526;8.078;2023-08-21T10:59:52;100045.00;;;45.66;24.56
77192;BME280;66172;48.526;8.078;2023-08-21T11:02:19;100046.25;;;45.50;24.54
77192;BME280;66172;48.526;8.078;2023-08-21T11:04:45;100046.63;;;45.47;24.77
77192;BME280;66172;48.526;8.078;2023-08-21T11:07:11;100039.41;;;45.25;25.08
77192;BME280;66172;48.526;8.078;2023-08-21T11:09:37;100044.81;;;44.59;25.51
77192;BME280;66172;48.526;8.078;2023-08-21T11:12:12;100039.91;;;44.67;24.78
77192;BME280;66172;48.526;8.078;2023-08-21T11:14:39;100037.72;;;45.01;25.46
77192;BME280;66172;48.526;8.078;2023-08-21T11:17:05;100030.47;;;45.36;24.62
77192;BME280;66172;48.526;8.078;2023-08-21T11:19:32;100031.66;;;45.12;25.00
77192;BME280;66172;48.526;8.078;2023-08-21T11:21:59;100040.41;;;44.37;26.53
77192;BME280;66172;48.526;8.078;2023-08-21T11:24:30;100038.63;;;44.34;26.88
77192;BME280;66172;48.526;8.078;2023-08-21T11:26:57;100030.88;;;44.63;26.55
77192;BME280;66172;48.526;8.078;2023-08-21T11:29:24;100039.66;;;45.06;26.27
77192;BME280;66172;48.526;8.078;2023-08-21T11:31:50;100033.44;;;44.95;25.78
77192;BME280;66172;48.526;8.078;2023-08-21T11:34:21;100035.84;;;44.08;26.54
77192;BME280;66172;48.526;8.078;2023-08-21T11:36:47;100038.59;;;43.53;26.92
77192;BME280;66172;48.526;8.078;2023-08-21T11:39:13;100028.59;;;43.47;27.33
77192;BME280;66172;48.526;8.078;2023-08-21T11:41:57;100022.09;;;44.27;26.44
77192;BME280;66172;48.526;8.078;2023-08-21T11:44:24;100020.94;;;44.09;26.20
77192;BME280;66172;48.526;8.078;2023-08-21T11:46:53;100030.19;;;43.82;26.92
77192;BME280;66172;48.526;8.078;2023-08-21T11:49:19;100022.59;;;43.84;26.55
77192;BME280;66172;48.526;8.078;2023-08-21T11:51:46;100020.72;;;42.81;26.82
77192;BME280;66172;48.526;8.078;2023-08-21T11:54:12;100024.94;;;43.59;25.97
77192;BME280;66172;48.526;8.078;2023-08-21T11:56:38;100016.25;;;43.39;26.84
77192;BME280;66172;48.526;8.078;2023-08-21T11:59:04;100019.22;;;42.30;28.89
77192;BME280;66172;48.526;8.078;2023-08-21T12:01:34;100012.00;;;43.00;28.00
77192;BME280;66172;48.526;8.078;2023-08-21T12:04:00;100011.06;;;43.50;27.87
77192;BME280;66172;48.526;8.078;2023-08-21T12:06:26;100010.06;;;43.35;27.96
77192;BME280;66172;48.526;8.078;2023-08-21T12:08:52;100001.13;;;42.86;28.16
77192;BME280;66172;48.526;8.078;2023-08-21T12:11:18;99999.59;;;43.37;26.48
77192;BME280;66172;48.526;8.078;2023-08-21T12:13:44;100001.81;;;43.05;27.02
77192;BME280;66172;48.526;8.078;2023-08-21T12:16:10;99998.78;;;42.71;27.38
77192;BME280;66172;48.526;8.078;2023-08-21T12:18:36;100001.72;;;43.10;27.31
77192;BME280;66172;48.526;8.078;2023-08-21T12:21:02;99994.31;;;43.02;26.24
77192;BME280;66172;48.526;8.078;2023-08-21T12:23:28;99991.19;;;42.73;28.09
77192;BME280;66172;48.526;8.078;2023-08-21T12:25:54;99988.56;;;42.44;27.78
77192;BME280;66172;48.526;8.078;2023-08-21T12:28:20;99984.41;;;42.58;27.00
77192;BME280;66172;48.526;8.078;2023-08-21T12:30:46;99979.81;;;42.23;28.49
77192;BME280;66172;48.526;8.078;2023-08-21T12:33:12;99978.00;;;41.51;28.53
77192;BME280;66172;48.526;8.078;2023-08-21T12:35:38;99970.03;;;41.01;29.08
77192;BME280;66172;48.526;8.078;2023-08-21T12:38:10;99976.00;;;41.64;29.07
77192;BME280;66172;48.526;8.078;2023-08-21T12:40:39;99972.59;;;41.04;30.33
77192;BME280;66172;48.526;8.078;2023-08-21T12:43:05;99972.00;;;40.57;30.90
77192;BME280;66172;48.526;8.078;2023-08-21T12:45:31;99970.22;;;40.24;31.31
77192;BME280;66172;48.526;8.078;2023-08-21T12:47:57;99971.81;;;40.50;31.33
77192;BME280;66172;48.526;8.078;2023-08-21T12:50:22;99963.78;;;40.48;31.44
77192;BME280;66172;48.526;8.078;2023-08-21T12:52:48;99964.25;;;40.82;31.02
77192;BME280;66172;48.526;8.078;2023-08-21T12:55:14;99959.56;;;40.84;30.42
77192;BME280;66172;48.526;8.078;2023-08-21T12:57:40;99961.59;;;39.94;31.49
77192;BME280;66172;48.526;8.078;2023-08-21T13:00:07;99964.31;;;39.18;32.54
77192;BME280;66172;48.526;8.078;2023-08-21T13:02:33;99964.25;;;39.40;33.47